createdAt,value
2023-02-06T00:00:55.273Z,48.15
2023-02-06T00:03:57.176Z,49.41
2023-02-06T00:06:59.038Z,48.03
2023-02-06T00:10:00.893Z,49.26
2023-02-06T00:13:02.916Z,49.97
2023-02-06T00:16:05.150Z,48.65
2023-02-06T00:19:07.160Z,52.53
2023-02-06T00:22:10.335Z,54.30
2023-02-06T00:25:12.200Z,53.95
2023-02-06T00:28:14.172Z,53.16
2023-02-06T00:31:17.353Z,50.42
2023-02-06T00:34:19.420Z,50.56
2023-02-06T00:37:21.219Z,51.88
2023-02-06T00:40:23.081Z,52.27
2023-02-06T00:43:25.272Z,49.31
2023-02-06T00:46:27.185Z,51.90
2023-02-06T00:49:29.091Z,53.67
2023-02-06T00:52:31.147Z,52.88
2023-02-06T00:55:33.353Z,52.34
2023-02-06T00:58:35.355Z,51.77
2023-02-06T01:01:37.295Z,54.06
2023-02-06T01:04:39.160Z,53.88
2023-02-06T01:07:42.528Z,54.58
2023-02-06T01:10:44.484Z,52.45
2023-02-06T01:13:46.529Z,52.38
2023-02-06T01:16:48.464Z,52.86
2023-02-06T01:19:50.612Z,50.08
2023-02-06T01:22:52.564Z,49.60
2023-02-06T01:25:54.586Z,49.14
2023-02-06T01:28:56.536Z,48.56
2023-02-06T01:31:58.607Z,49.46
2023-02-06T01:35:00.454Z,50.33
2023-02-06T01:38:02.376Z,49.26
2023-02-06T01:41:04.528Z,50.61
2023-02-06T01:44:24.951Z,50.12
2023-02-06T01:47:28.537Z,49.66
2023-02-06T01:50:30.644Z,49.86
2023-02-06T01:53:32.622Z,48.11
2023-02-06T01:56:40.242Z,49.23
2023-02-06T01:59:42.669Z,50.16
2023-02-06T02:02:45.371Z,49.08
2023-02-06T02:05:47.248Z,48.81
2023-02-06T02:08:49.589Z,47.07
2023-02-06T02:11:51.443Z,50.18
2023-02-06T02:14:53.464Z,49.66
2023-02-06T02:17:57.771Z,48.84
2023-02-06T02:21:18.330Z,48.37
2023-02-06T02:24:25.813Z,49.27
2023-02-06T02:27:45.114Z,48.53
2023-02-06T02:30:51.618Z,47.47
2023-02-06T02:33:53.527Z,49.62
2023-02-06T02:36:57.675Z,49.21
2023-02-06T02:40:00.970Z,49.50
2023-02-06T02:43:12.894Z,49.07
2023-02-06T02:46:20.201Z,50.17
2023-02-06T02:49:23.639Z,49.47
2023-02-06T02:52:25.496Z,49.63
2023-02-06T02:55:27.776Z,49.86
2023-02-06T02:58:30.927Z,49.23
2023-02-06T03:01:34.122Z,50.84
2023-02-06T03:04:49.233Z,50.13
2023-02-06T03:08:09.935Z,50.18
2023-02-06T03:11:18.486Z,50.54
2023-02-06T03:14:22.234Z,48.61
2023-02-06T03:17:32.450Z,46.22
2023-02-06T03:20:34.374Z,46.08
2023-02-06T03:23:38.122Z,45.65
2023-02-06T03:26:39.974Z,47.96
2023-02-06T03:29:41.891Z,45.95
2023-02-06T03:32:45.756Z,49.46
2023-02-06T03:35:47.602Z,48.33
2023-02-06T03:38:49.773Z,46.43
2023-02-06T03:41:51.743Z,48.70
2023-02-06T03:45:01.399Z,49.79
2023-02-06T03:48:04.588Z,50.15
2023-02-06T03:51:14.698Z,48.78
2023-02-06T03:54:17.339Z,49.15
2023-02-06T03:57:19.436Z,48.19
2023-02-06T04:00:21.418Z,47.51
2023-02-06T04:03:23.231Z,46.83
2023-02-06T04:06:25.080Z,47.67
2023-02-06T04:09:26.977Z,49.45
2023-02-06T04:12:28.848Z,47.96
2023-02-06T04:15:30.727Z,47.50
2023-02-06T04:18:32.711Z,48.10
2023-02-06T04:21:34.545Z,48.29
2023-02-06T04:24:39.342Z,46.97
2023-02-06T04:27:41.252Z,47.38
2023-02-06T04:30:43.291Z,45.20
2023-02-06T04:33:45.244Z,46.12
2023-02-06T04:36:49.673Z,46.28
2023-02-06T04:39:51.735Z,46.09
2023-02-06T04:42:53.902Z,46.78
2023-02-06T04:45:56.055Z,46.75
2023-02-06T04:48:57.871Z,46.65
2023-02-06T04:51:59.885Z,45.72
2023-02-06T04:55:01.920Z,45.13
2023-02-06T04:58:03.798Z,45.64
2023-02-06T05:01:05.893Z,47.49
2023-02-06T05:04:08.040Z,46.58
2023-02-06T05:07:09.927Z,46.18
2023-02-06T05:10:11.959Z,45.51
2023-02-06T05:13:14.045Z,47.60
2023-02-06T05:16:16.752Z,47.58
2023-02-06T05:19:18.724Z,47.23
2023-02-06T05:22:20.573Z,46.06
2023-02-06T05:25:22.543Z,45.84
2023-02-06T05:28:24.487Z,45.82
2023-02-06T05:31:26.648Z,45.88
2023-02-06T05:34:28.536Z,46.27
2023-02-06T05:37:30.417Z,44.88
2023-02-06T05:40:32.374Z,45.86
2023-02-06T05:43:34.449Z,46.00
2023-02-06T05:46:36.676Z,48.37
2023-02-06T05:49:38.824Z,47.72
2023-02-06T05:52:40.679Z,46.46
2023-02-06T05:55:42.688Z,46.63
2023-02-06T05:58:44.723Z,48.47
2023-02-06T06:01:46.778Z,48.97
2023-02-06T06:04:48.730Z,48.44
2023-02-06T06:07:50.715Z,47.25
2023-02-06T06:10:52.652Z,47.91
2023-02-06T06:13:54.616Z,48.01
2023-02-06T06:16:56.525Z,47.16
2023-02-06T06:19:58.460Z,46.13
2023-02-06T06:23:00.319Z,46.44
2023-02-06T06:26:02.181Z,46.33
2023-02-06T06:29:04.003Z,47.32
2023-02-06T06:32:06.020Z,48.09
2023-02-06T06:35:08.317Z,44.69
2023-02-06T06:38:10.368Z,45.23
2023-02-06T06:41:12.780Z,47.45
2023-02-06T06:44:15.014Z,44.74
2023-02-06T06:47:17.171Z,44.62
2023-02-06T06:50:19.215Z,43.97
2023-02-06T06:53:21.479Z,43.02
2023-02-06T06:56:23.589Z,42.31
2023-02-06T06:59:25.480Z,41.39
2023-02-06T07:02:28.740Z,42.25
2023-02-06T07:05:30.874Z,43.30
2023-02-06T07:08:35.300Z,42.25
2023-02-06T07:11:37.132Z,43.45
2023-02-06T07:14:40.698Z,41.73
2023-02-06T07:17:42.796Z,43.51
2023-02-06T07:20:45.038Z,42.87
2023-02-06T07:23:47.246Z,41.31
2023-02-06T07:26:51.792Z,41.57
2023-02-06T07:29:53.654Z,42.74
2023-02-06T07:32:55.638Z,42.32
2023-02-06T07:35:58.119Z,41.15
2023-02-06T07:39:01.983Z,41.58
2023-02-06T07:42:04.535Z,42.37
2023-02-06T07:45:06.615Z,42.53
2023-02-06T07:48:08.629Z,42.44
2023-02-06T07:51:10.542Z,42.38
2023-02-06T07:54:12.766Z,43.88
2023-02-06T07:57:14.873Z,41.48
2023-02-06T08:00:17.106Z,40.70
2023-02-06T08:03:20.962Z,40.67
2023-02-06T08:06:24.457Z,41.46
2023-02-06T08:09:26.398Z,42.74
2023-02-06T08:12:31.900Z,41.81
2023-02-06T08:15:34.234Z,42.19
2023-02-06T08:18:36.450Z,43.04
2023-02-06T08:21:38.717Z,41.76
2023-02-06T08:24:40.555Z,41.86
2023-02-06T08:27:42.538Z,40.84
2023-02-06T08:30:45.060Z,41.87
2023-02-06T08:33:47.832Z,42.04
2023-02-06T08:36:49.817Z,39.70
2023-02-06T08:39:51.702Z,40.21
2023-02-06T08:42:53.721Z,43.34
2023-02-06T08:45:59.533Z,42.26
2023-02-06T08:49:02.649Z,44.48
2023-02-06T08:52:04.651Z,43.17
2023-02-06T08:55:06.773Z,43.05
2023-02-06T08:58:09.299Z,40.16
2023-02-06T09:01:14.373Z,38.86
2023-02-06T09:04:16.295Z,40.83
2023-02-06T09:07:18.300Z,39.89
2023-02-06T09:10:27.429Z,38.91
2023-02-06T09:13:31.141Z,39.17
2023-02-06T09:16:33.740Z,38.33
2023-02-06T09:19:35.582Z,39.14
2023-02-06T09:22:37.628Z,37.58
2023-02-06T09:25:39.867Z,40.39
2023-02-06T09:28:42.341Z,38.99
2023-02-06T09:31:45.225Z,38.35
2023-02-06T09:34:48.429Z,39.51
2023-02-06T09:37:51.066Z,41.40
2023-02-06T09:40:53.491Z,40.50
2023-02-06T09:44:04.350Z,38.09
2023-02-06T09:47:10.420Z,38.48
2023-02-06T09:50:18.825Z,39.14
2023-02-06T09:53:30.544Z,38.65
2023-02-06T09:56:52.827Z,39.64
2023-02-06T09:59:56.771Z,39.95
2023-02-06T10:03:12.532Z,38.99
2023-02-06T10:06:16.352Z,38.22
2023-02-06T10:09:22.515Z,37.61
2023-02-06T10:12:31.516Z,38.95
2023-02-06T10:15:35.739Z,40.44
2023-02-06T10:18:54.270Z,39.32
2023-02-06T10:22:01.757Z,38.35
2023-02-06T10:25:21.205Z,36.69
2023-02-06T10:28:27.671Z,37.65
2023-02-06T10:31:29.763Z,36.38
2023-02-06T10:34:38.077Z,36.08
2023-02-06T10:37:58.472Z,34.60
2023-02-06T10:41:12.934Z,32.78
2023-02-06T10:44:25.376Z,33.09
2023-02-06T10:47:39.673Z,32.96
2023-02-06T10:50:47.867Z,31.33
2023-02-06T10:54:13.275Z,29.39
2023-02-06T10:57:19.134Z,31.20
2023-02-06T11:00:25.342Z,34.23
2023-02-06T11:03:30.565Z,30.42
2023-02-06T11:06:32.472Z,30.96
2023-02-06T11:09:34.539Z,33.32
2023-02-06T11:12:38.332Z,34.26
2023-02-06T11:15:46.159Z,32.15
2023-02-06T11:18:48.887Z,31.23
2023-02-06T11:21:54.937Z,30.91
2023-02-06T11:25:01.447Z,31.47
2023-02-06T11:28:03.514Z,29.57
2023-02-06T11:31:06.423Z,32.79
2023-02-06T11:34:18.200Z,31.21
2023-02-06T11:37:39.413Z,29.53
2023-02-06T11:40:41.556Z,27.75
2023-02-06T11:43:43.987Z,31.28
2023-02-06T11:46:45.946Z,30.28
2023-02-06T11:49:48.079Z,30.62
2023-02-06T11:52:52.418Z,30.16
2023-02-06T11:55:59.141Z,31.82
2023-02-06T11:59:16.763Z,29.65
2023-02-06T12:02:25.706Z,29.70
2023-02-06T12:05:29.172Z,29.10
2023-02-06T12:08:36.973Z,26.72
2023-02-06T12:11:57.700Z,26.04
2023-02-06T12:15:23.564Z,24.97
2023-02-06T12:18:36.828Z,27.97
2023-02-06T12:21:43.049Z,29.60
2023-02-06T12:24:45.825Z,28.32
2023-02-06T12:27:47.894Z,27.42
2023-02-06T12:30:57.232Z,26.64
2023-02-06T12:34:01.671Z,30.33
2023-02-06T12:37:15.694Z,30.36
2023-02-06T12:40:26.550Z,29.33
2023-02-06T12:43:28.970Z,32.38
2023-02-06T12:46:31.275Z,31.28
2023-02-06T12:49:35.916Z,30.36
2023-02-06T12:52:42.220Z,30.48
2023-02-06T12:55:44.500Z,30.13
2023-02-06T12:58:51.782Z,26.15
2023-02-06T13:02:00.777Z,26.28
2023-02-06T13:05:05.916Z,28.48
2023-02-06T13:08:10.117Z,27.34
2023-02-06T13:11:17.967Z,28.91
2023-02-06T13:14:30.628Z,27.34
2023-02-06T13:17:32.421Z,29.32
2023-02-06T13:20:34.594Z,28.90
2023-02-06T13:23:36.563Z,27.84
2023-02-06T13:26:51.731Z,24.10
2023-02-06T13:29:56.755Z,28.61
2023-02-06T13:32:59.871Z,27.57
2023-02-06T13:36:06.749Z,22.47
2023-02-06T13:39:25.690Z,23.15
2023-02-06T13:42:29.924Z,23.93
2023-02-06T13:45:37.011Z,25.45
2023-02-06T13:48:46.714Z,24.12
2023-02-06T13:51:50.351Z,23.09
2023-02-06T13:54:52.365Z,21.38
2023-02-06T13:58:13.174Z,19.47
2023-02-06T14:01:20.264Z,24.14
2023-02-06T14:04:25.146Z,23.77
2023-02-06T14:07:42.606Z,24.43
2023-02-06T14:10:56.812Z,27.73
2023-02-06T14:14:14.863Z,30.39
2023-02-06T14:17:25.884Z,29.55
2023-02-06T14:20:46.679Z,28.18
2023-02-06T14:23:59.745Z,32.05
2023-02-06T14:27:14.311Z,31.04
2023-02-06T14:30:22.405Z,30.07
2023-02-06T14:33:35.270Z,28.15
2023-02-06T14:37:06.599Z,28.09
2023-02-06T14:40:34.862Z,27.95
2023-02-06T14:43:37.427Z,28.99
2023-02-06T14:46:39.933Z,31.29
2023-02-06T14:49:41.832Z,32.60
2023-02-06T14:52:44.042Z,32.40
2023-02-06T14:55:47.108Z,31.43
2023-02-06T14:58:49.424Z,33.69
2023-02-06T15:01:52.010Z,35.26
2023-02-06T15:04:54.191Z,34.34
2023-02-06T15:07:57.418Z,35.54
2023-02-06T15:11:03.522Z,33.99
2023-02-06T15:14:06.786Z,34.15
2023-02-06T15:17:17.739Z,35.96
2023-02-06T15:20:22.860Z,36.73
2023-02-06T15:23:48.575Z,37.70
2023-02-06T15:27:26.130Z,36.91
2023-02-06T15:30:28.134Z,37.71
2023-02-06T15:33:33.349Z,38.47
2023-02-06T15:36:37.857Z,39.82
2023-02-06T15:39:40.507Z,38.29
2023-02-06T15:42:42.635Z,37.14
2023-02-06T15:45:44.855Z,38.91
2023-02-06T15:48:47.068Z,38.38
2023-02-06T15:51:51.755Z,39.73
2023-02-06T15:54:57.862Z,39.43
2023-02-06T15:58:00.595Z,39.33
2023-02-06T16:01:02.768Z,38.64
2023-02-06T16:04:06.399Z,38.25
2023-02-06T16:07:13.084Z,38.79
2023-02-06T16:10:22.925Z,37.92
2023-02-06T16:13:25.478Z,37.39
2023-02-06T16:16:27.801Z,40.00
2023-02-06T16:19:38.119Z,39.01
2023-02-06T16:22:40.301Z,39.46
2023-02-06T16:25:42.328Z,39.54
2023-02-06T16:29:00.238Z,39.73
2023-02-06T16:32:19.544Z,40.14
2023-02-06T16:35:21.864Z,39.74
2023-02-06T16:38:24.063Z,40.33
2023-02-06T16:41:27.319Z,40.15
2023-02-06T16:44:43.783Z,39.26
2023-02-06T16:47:47.097Z,38.38
2023-02-06T16:50:49.116Z,38.18
2023-02-06T16:53:51.298Z,37.23
2023-02-06T16:56:53.529Z,38.74
2023-02-06T16:59:55.637Z,38.35
2023-02-06T17:02:57.668Z,39.60
2023-02-06T17:05:59.830Z,40.47
2023-02-06T17:09:04.431Z,39.68
2023-02-06T17:12:06.765Z,39.91
2023-02-06T17:15:10.303Z,39.31
2023-02-06T17:18:12.888Z,40.93
2023-02-06T17:21:16.986Z,39.25
2023-02-06T17:24:19.225Z,40.38
2023-02-06T17:27:21.835Z,38.53
2023-02-06T17:30:24.238Z,39.28
2023-02-06T17:33:26.386Z,39.68
2023-02-06T17:36:33.241Z,40.85
2023-02-06T17:39:35.809Z,41.36
2023-02-06T17:42:37.722Z,41.15
2023-02-06T17:45:39.901Z,42.35
2023-02-06T17:48:43.701Z,41.50
2023-02-06T17:51:45.828Z,41.01
2023-02-06T17:54:47.978Z,41.62
2023-02-06T17:57:50.520Z,41.40
2023-02-06T18:00:52.408Z,41.37
2023-02-06T18:03:54.768Z,42.16
2023-02-06T18:06:56.660Z,40.11
2023-02-06T18:09:58.664Z,41.99
2023-02-06T18:13:00.595Z,43.42
2023-02-06T18:16:02.695Z,42.29
2023-02-06T18:19:04.803Z,43.95
2023-02-06T18:22:06.709Z,45.27
2023-02-06T18:25:10.202Z,44.22
2023-02-06T18:28:14.056Z,45.12
2023-02-06T18:31:23.938Z,44.10
2023-02-06T18:34:25.966Z,43.16
2023-02-06T18:37:27.961Z,43.59
2023-02-06T18:40:29.871Z,44.12
2023-02-06T18:43:31.993Z,44.31
2023-02-06T18:46:34.073Z,42.55
2023-02-06T18:49:36.200Z,42.76
2023-02-06T18:52:40.055Z,44.04
2023-02-06T18:55:42.859Z,43.72
2023-02-06T18:58:44.915Z,44.13
2023-02-06T19:01:47.460Z,43.55
2023-02-06T19:04:49.480Z,42.65
2023-02-06T19:07:53.067Z,43.46
2023-02-06T19:10:56.686Z,44.66
2023-02-06T19:13:58.726Z,45.16
2023-02-06T19:17:00.818Z,45.76
2023-02-06T19:20:02.913Z,45.99
2023-02-06T19:23:04.841Z,46.44
2023-02-06T19:26:07.501Z,46.54
2023-02-06T19:29:09.574Z,46.41
2023-02-06T19:32:11.640Z,48.16
2023-02-06T19:35:14.740Z,45.26
2023-02-06T19:38:16.643Z,46.78
2023-02-06T19:41:23.884Z,45.68
2023-02-06T19:44:27.160Z,45.19
2023-02-06T19:47:29.052Z,47.30
2023-02-06T19:50:31.096Z,48.59
2023-02-06T19:53:34.336Z,45.81
2023-02-06T19:56:40.440Z,46.89
2023-02-06T19:59:42.527Z,47.92
2023-02-06T20:02:44.704Z,46.13
2023-02-06T20:05:46.598Z,45.28
2023-02-06T20:08:48.816Z,45.47
2023-02-06T20:11:50.777Z,45.38
2023-02-06T20:14:52.710Z,45.50
2023-02-06T20:17:54.899Z,43.72
2023-02-06T20:20:56.805Z,45.79
2023-02-06T20:24:00.543Z,44.50
2023-02-06T20:27:03.419Z,43.95
2023-02-06T20:30:05.558Z,44.43
2023-02-06T20:33:07.435Z,44.46
2023-02-06T20:36:10.553Z,47.33
2023-02-06T20:39:13.016Z,44.54
2023-02-06T20:42:15.767Z,44.25
2023-02-06T20:45:18.085Z,43.52
2023-02-06T20:48:19.950Z,47.15
2023-02-06T20:51:21.893Z,46.89
2023-02-06T20:54:24.039Z,45.70
2023-02-06T20:57:26.020Z,45.83
2023-02-06T21:00:28.162Z,44.44
2023-02-06T21:03:30.565Z,45.92
2023-02-06T21:06:33.550Z,44.47
2023-02-06T21:09:35.467Z,47.87
2023-02-06T21:12:37.512Z,47.71
2023-02-06T21:15:39.600Z,47.33
2023-02-06T21:18:42.858Z,44.78
2023-02-06T21:21:46.311Z,45.50
2023-02-06T21:24:48.551Z,44.26
2023-02-06T21:27:50.425Z,43.64
2023-02-06T21:30:52.344Z,44.21
2023-02-06T21:33:54.274Z,45.46
2023-02-06T21:36:56.178Z,45.89
2023-02-06T21:39:58.457Z,45.11
2023-02-06T21:43:00.685Z,47.95
2023-02-06T21:46:03.078Z,47.62
2023-02-06T21:49:06.490Z,46.49
2023-02-06T21:52:08.368Z,44.42
2023-02-06T21:55:10.300Z,45.67
2023-02-06T21:58:14.924Z,47.33
2023-02-06T22:01:21.801Z,46.89
2023-02-06T22:04:23.834Z,45.12
2023-02-06T22:07:25.787Z,46.83
2023-02-06T22:10:27.915Z,46.24
2023-02-06T22:13:29.829Z,45.34
2023-02-06T22:16:31.865Z,45.94
2023-02-06T22:19:35.015Z,46.64
2023-02-06T22:22:38.706Z,48.03
2023-02-06T22:25:45.977Z,47.41
2023-02-06T22:28:48.073Z,45.45
2023-02-06T22:31:50.050Z,45.87
2023-02-06T22:34:53.829Z,46.42
2023-02-06T22:37:56.364Z,45.67
2023-02-06T22:41:02.280Z,45.50
2023-02-06T22:44:04.203Z,43.57
2023-02-06T22:47:06.066Z,43.78
2023-02-06T22:50:08.136Z,44.59
2023-02-06T22:53:29.500Z,45.68
2023-02-06T22:56:35.189Z,44.90
2023-02-06T22:59:37.116Z,48.34
2023-02-06T23:02:39.020Z,49.31
2023-02-06T23:05:41.020Z,49.43
2023-02-06T23:08:43.903Z,51.52
2023-02-06T23:11:46.078Z,51.89
2023-02-06T23:14:48.203Z,51.95
2023-02-06T23:17:50.179Z,53.17
2023-02-06T23:21:02.659Z,52.55
2023-02-06T23:24:05.199Z,55.20
2023-02-06T23:27:07.086Z,53.92
2023-02-06T23:30:09.513Z,53.59
2023-02-06T23:33:11.451Z,53.66
2023-02-06T23:36:15.200Z,54.67
2023-02-06T23:39:17.163Z,53.54
2023-02-06T23:42:19.265Z,55.33
2023-02-06T23:45:21.245Z,54.52
2023-02-06T23:48:23.246Z,54.63
2023-02-06T23:51:25.390Z,54.75
2023-02-06T23:54:27.283Z,53.12
2023-02-06T23:57:29.119Z,53.16
